createdAt,value
2023-03-15T00:02:05.605Z,9.12
2023-03-15T00:07:07.275Z,9.11
2023-03-15T00:12:08.965Z,9.18
2023-03-15T00:17:11.902Z,9.21
2023-03-15T00:22:13.384Z,9.20
2023-03-15T00:27:14.912Z,9.18
2023-03-15T00:32:16.433Z,9.22
2023-03-15T00:37:19.871Z,9.32
2023-03-15T00:42:21.868Z,9.32
2023-03-15T00:47:23.498Z,9.30
2023-03-15T00:52:25.209Z,9.34
2023-03-15T00:57:26.906Z,9.36
2023-03-15T01:02:28.438Z,9.33
2023-03-15T01:07:30.022Z,9.11
2023-03-15T01:12:33.993Z,8.72
2023-03-15T01:17:35.563Z,8.25
2023-03-15T01:22:37.146Z,7.69
2023-03-15T01:27:38.761Z,7.33
2023-03-15T01:32:40.453Z,6.78
2023-03-15T01:37:41.957Z,6.11
2023-03-15T01:43:11.293Z,5.68
2023-03-15T01:48:12.866Z,5.53
2023-03-15T01:53:15.033Z,5.40
2023-03-15T01:58:16.774Z,5.13
2023-03-15T02:03:52.233Z,4.84
2023-03-15T02:08:59.001Z,4.72
2023-03-15T02:14:04.128Z,4.69
2023-03-15T02:19:17.998Z,4.54
2023-03-15T02:24:38.253Z,4.49
2023-03-15T02:29:40.056Z,4.39
2023-03-15T02:34:41.540Z,4.21
2023-03-15T02:39:43.232Z,4.29
2023-03-15T02:44:47.579Z,4.26
2023-03-15T02:49:51.398Z,4.16
2023-03-15T02:54:54.296Z,4.17
2023-03-15T02:59:56.980Z,4.12
2023-03-15T03:04:58.477Z,3.98
2023-03-15T03:10:13.537Z,3.90
2023-03-15T03:15:15.019Z,3.84
2023-03-15T03:20:16.624Z,3.78
2023-03-15T03:25:18.363Z,3.75
2023-03-15T03:30:19.886Z,3.88
2023-03-15T03:35:21.394Z,3.96
2023-03-15T03:40:22.867Z,4.00
2023-03-15T03:45:24.361Z,3.97
2023-03-15T03:50:26.199Z,3.92
2023-03-15T03:55:27.760Z,4.00
2023-03-15T04:00:31.502Z,4.01
2023-03-15T04:05:34.075Z,3.88
2023-03-15T04:10:35.589Z,3.83
2023-03-15T04:15:37.054Z,3.82
2023-03-15T04:20:38.625Z,3.95
2023-03-15T04:25:40.497Z,4.01
2023-03-15T04:30:45.184Z,3.92
2023-03-15T04:35:46.787Z,3.89
2023-03-15T04:40:48.418Z,3.87
2023-03-15T04:45:51.817Z,3.97
2023-03-15T04:50:53.346Z,4.01
2023-03-15T04:55:55.072Z,3.98
2023-03-15T05:00:56.619Z,3.92
2023-03-15T05:05:58.217Z,3.82
2023-03-15T05:10:59.712Z,3.76
2023-03-15T05:16:01.234Z,3.81
2023-03-15T05:21:02.844Z,3.75
2023-03-15T05:26:05.017Z,3.69
2023-03-15T05:31:06.805Z,3.69
2023-03-15T05:36:08.424Z,3.73
2023-03-15T05:41:10.176Z,3.79
2023-03-15T05:46:11.795Z,3.81
2023-03-15T05:51:13.405Z,3.84
2023-03-15T05:56:14.945Z,3.89
2023-03-15T06:01:16.443Z,3.87
2023-03-15T06:06:17.969Z,3.91
2023-03-15T06:11:19.457Z,3.93
2023-03-15T06:16:21.053Z,3.87
2023-03-15T06:21:22.681Z,3.90
2023-03-15T06:26:24.553Z,3.98
2023-03-15T06:31:26.087Z,4.00
2023-03-15T06:36:27.782Z,4.02
2023-03-15T06:41:29.413Z,4.04
2023-03-15T06:46:30.980Z,4.11
2023-03-15T06:51:32.501Z,4.22
2023-03-15T06:56:37.337Z,4.36
2023-03-15T07:01:39.167Z,4.43
2023-03-15T07:06:40.949Z,4.44
2023-03-15T07:11:42.822Z,4.50
2023-03-15T07:16:44.657Z,4.75
2023-03-15T07:21:46.728Z,4.94
2023-03-15T07:26:48.239Z,5.12
2023-03-15T07:31:50.460Z,5.11
2023-03-15T07:36:51.964Z,5.28
2023-03-15T07:41:53.489Z,5.49
2023-03-15T07:46:56.057Z,5.43
2023-03-15T07:51:57.840Z,5.37
2023-03-15T07:56:59.635Z,5.36
2023-03-15T08:02:02.925Z,5.44
2023-03-15T08:07:05.068Z,5.45
2023-03-15T08:12:08.107Z,5.55
2023-03-15T08:17:13.133Z,5.53
2023-03-15T08:22:14.772Z,5.65
2023-03-15T08:27:16.481Z,5.73
2023-03-15T08:32:18.961Z,5.88
2023-03-15T08:37:21.084Z,5.95
2023-03-15T08:42:22.715Z,6.03
2023-03-15T08:47:24.257Z,6.12
2023-03-15T08:52:26.690Z,6.20
2023-03-15T08:57:29.291Z,6.16
2023-03-15T09:02:31.153Z,5.89
2023-03-15T09:07:34.082Z,6.03
2023-03-15T09:12:35.718Z,6.09
2023-03-15T09:17:38.294Z,6.11
2023-03-15T09:22:44.005Z,6.25
2023-03-15T09:27:45.955Z,6.12
2023-03-15T09:32:47.908Z,6.01
2023-03-15T09:37:50.991Z,6.08
2023-03-15T09:43:35.785Z,6.17
2023-03-15T09:48:49.743Z,6.22
2023-03-15T09:54:03.543Z,6.28
2023-03-15T09:59:06.848Z,6.37
2023-03-15T10:04:23.372Z,6.43
2023-03-15T10:09:29.241Z,6.38
2023-03-15T10:14:50.026Z,6.49
2023-03-15T10:19:59.320Z,6.46
2023-03-15T10:25:26.280Z,6.30
2023-03-15T10:30:40.466Z,6.14
2023-03-15T10:35:45.429Z,6.05
2023-03-15T10:40:52.609Z,5.99
2023-03-15T10:46:07.981Z,5.95
2023-03-15T10:51:24.612Z,6.10
2023-03-15T10:56:34.994Z,6.23
2023-03-15T11:01:37.564Z,6.14
2023-03-15T11:06:57.985Z,6.06
2023-03-15T11:12:02.034Z,6.18
2023-03-15T11:17:07.225Z,6.18
2023-03-15T11:22:13.764Z,6.39
2023-03-15T11:27:19.042Z,6.43
2023-03-15T11:32:25.444Z,6.61
2023-03-15T11:37:42.877Z,6.58
2023-03-15T11:42:56.333Z,6.74
2023-03-15T11:48:04.354Z,6.82
2023-03-15T11:53:06.995Z,6.73
2023-03-15T11:58:29.706Z,6.95
2023-03-15T12:03:42.643Z,6.96
2023-03-15T12:08:53.974Z,6.80
2023-03-15T12:14:01.878Z,6.73
2023-03-15T12:19:18.556Z,6.61
2023-03-15T12:24:31.759Z,6.47
2023-03-15T12:29:36.245Z,6.58
2023-03-15T12:34:43.702Z,6.46
2023-03-15T12:39:49.112Z,6.59
2023-03-15T12:44:51.546Z,6.74
2023-03-15T12:49:53.152Z,6.89
2023-03-15T12:54:57.453Z,7.04
2023-03-15T13:00:08.196Z,7.05
2023-03-15T13:05:09.677Z,7.07
2023-03-15T13:10:38.468Z,7.11
2023-03-15T13:15:49.830Z,7.11
2023-03-15T13:21:06.440Z,7.24
2023-03-15T13:26:23.775Z,7.39
2023-03-15T13:31:30.701Z,7.35
2023-03-15T13:36:44.329Z,7.21
2023-03-15T13:41:47.734Z,7.13
2023-03-15T13:46:50.998Z,7.01
2023-03-15T13:51:53.411Z,6.97
2023-03-15T13:57:27.800Z,6.83
2023-03-15T14:02:46.633Z,6.77
2023-03-15T14:07:49.965Z,6.87
2023-03-15T14:12:54.044Z,6.96
2023-03-15T14:18:07.614Z,6.80
2023-03-15T14:23:12.886Z,6.65
2023-03-15T14:28:16.632Z,6.49
2023-03-15T14:33:31.471Z,6.41
2023-03-15T14:38:38.979Z,6.44
2023-03-15T14:43:40.506Z,6.34
2023-03-15T14:48:42.436Z,6.32
2023-03-15T14:53:45.817Z,6.19
2023-03-15T14:58:47.382Z,6.09
2023-03-15T15:03:58.337Z,5.97
2023-03-15T15:09:01.570Z,5.97
2023-03-15T15:14:03.126Z,5.91
2023-03-15T15:19:04.745Z,5.87
2023-03-15T15:24:18.557Z,5.87
2023-03-15T15:29:20.156Z,5.73
2023-03-15T15:34:21.687Z,5.74
2023-03-15T15:39:29.606Z,5.66
2023-03-15T15:44:31.153Z,5.58
2023-03-15T15:49:32.857Z,5.49
2023-03-15T15:54:35.817Z,5.35
2023-03-15T15:59:37.388Z,5.28
2023-03-15T16:04:41.182Z,5.20
2023-03-15T16:09:46.506Z,5.16
2023-03-15T16:14:48.110Z,5.15
2023-03-15T16:19:50.889Z,5.09
2023-03-15T16:24:55.050Z,4.95
2023-03-15T16:29:56.692Z,4.89
2023-03-15T16:34:58.208Z,4.76
2023-03-15T16:40:01.707Z,4.67
2023-03-15T16:45:12.525Z,4.61
2023-03-15T16:50:14.676Z,4.46
2023-03-15T16:55:22.032Z,4.35
2023-03-15T17:00:24.688Z,4.18
2023-03-15T17:05:26.922Z,4.03
2023-03-15T17:10:31.200Z,3.92
2023-03-15T17:15:32.752Z,3.81
2023-03-15T17:20:34.320Z,3.70
2023-03-15T17:25:35.947Z,3.57
2023-03-15T17:30:38.158Z,3.46
2023-03-15T17:35:47.282Z,3.38
2023-03-15T17:40:49.361Z,3.27
2023-03-15T17:45:52.326Z,3.19
2023-03-15T17:50:53.821Z,3.10
2023-03-15T17:55:55.382Z,3.05
2023-03-15T18:00:57.032Z,2.98
2023-03-15T18:06:01.472Z,2.88
2023-03-15T18:11:03.008Z,2.82
2023-03-15T18:16:04.829Z,2.76
2023-03-15T18:21:12.133Z,2.69
2023-03-15T18:26:13.802Z,2.64
2023-03-15T18:31:18.617Z,2.55
2023-03-15T18:36:21.842Z,2.43
2023-03-15T18:41:25.016Z,2.34
2023-03-15T18:46:27.124Z,2.25
2023-03-15T18:51:28.800Z,2.19
2023-03-15T18:56:34.591Z,2.13
2023-03-15T19:01:36.209Z,2.08
2023-03-15T19:06:37.829Z,2.02
2023-03-15T19:11:41.828Z,1.95
2023-03-15T19:16:43.400Z,1.88
2023-03-15T19:21:44.947Z,1.84
2023-03-15T19:26:46.431Z,1.79
2023-03-15T19:31:48.005Z,1.74
2023-03-15T19:36:49.632Z,1.71
2023-03-15T19:41:51.154Z,1.66
2023-03-15T19:46:52.948Z,1.62
2023-03-15T19:51:54.510Z,1.56
2023-03-15T19:56:58.617Z,1.47
2023-03-15T20:02:00.180Z,1.37
2023-03-15T20:07:01.745Z,1.29
2023-03-15T20:12:03.894Z,1.23
2023-03-15T20:17:05.859Z,1.20
2023-03-15T20:22:07.490Z,1.19
2023-03-15T20:27:09.601Z,1.20
2023-03-15T20:32:11.162Z,1.20
2023-03-15T20:37:13.609Z,1.29
2023-03-15T20:42:15.234Z,1.42
2023-03-15T20:47:17.303Z,1.49
2023-03-15T20:52:18.921Z,1.51
2023-03-15T20:57:20.831Z,1.46
2023-03-15T21:02:22.813Z,1.37
2023-03-15T21:07:24.516Z,1.27
2023-03-15T21:12:25.994Z,1.16
2023-03-15T21:17:29.181Z,1.08
2023-03-15T21:22:30.734Z,1.00
2023-03-15T21:27:32.848Z,0.90
2023-03-15T21:32:36.230Z,0.79
2023-03-15T21:37:38.225Z,0.73
2023-03-15T21:42:40.953Z,0.69
2023-03-15T21:47:42.913Z,0.66
2023-03-15T21:52:44.994Z,0.63
2023-03-15T21:57:46.749Z,0.70
2023-03-15T22:02:49.439Z,0.85
2023-03-15T22:07:51.597Z,0.90
2023-03-15T22:12:58.053Z,0.88
2023-03-15T22:17:59.887Z,0.85
2023-03-15T22:23:04.324Z,0.80
2023-03-15T22:28:06.483Z,0.71
2023-03-15T22:33:08.763Z,0.66
2023-03-15T22:38:10.550Z,0.62
2023-03-15T22:43:12.189Z,0.57
2023-03-15T22:48:13.702Z,0.49
2023-03-15T22:53:15.186Z,0.43
2023-03-15T22:58:16.665Z,0.47
2023-03-15T23:03:18.705Z,0.59
2023-03-15T23:08:20.710Z,0.68
2023-03-15T23:13:22.418Z,0.69
2023-03-15T23:18:24.167Z,0.61
2023-03-15T23:23:27.412Z,0.55
2023-03-15T23:28:29.446Z,0.48
2023-03-15T23:33:34.129Z,0.42
2023-03-15T23:38:35.744Z,0.35
2023-03-15T23:43:37.238Z,0.29
2023-03-15T23:48:38.725Z,0.24
2023-03-15T23:53:40.199Z,0.29
2023-03-15T23:58:41.768Z,0.38
